Time;durP1;ratioP1;P1;durP2;ratioP2;P2;SDS_P1;SDS_P2;PMS_P1;PMS_P2;Temp;Humidity;BMP_temperature;BMP_pressure;BME280_temperature;BME280_humidity;BME280_pressure;Samples;Min_cycle;Max_cycle;Signal;HPM_P1;HPM_P2
2022/10/06 00:01:56;;;;;;;1.10;0.80;;;;;;;17.97;61.48;97543.81;10506983;28;20036;-28
2022/10/06 00:06:57;;;;;;;0.93;0.60;;;;;;;17.89;62.08;97528.50;10512315;28;20036;-29
2022/10/06 00:11:57;;;;;;;0.63;0.60;;;;;;;18.00;63.62;97552.31;10505385;28;20809;-28
2022/10/06 00:16:58;;;;;;;2.55;0.82;;;;;;;18.02;63.22;97557.41;10517579;28;20032;-29
2022/10/06 00:21:58;;;;;;;0.47;0.47;;;;;;;18.03;62.70;97562.50;10502357;28;20028;-29
2022/10/06 00:26:59;;;;;;;1.30;0.80;;;;;;;17.91;62.16;97561.47;10506879;28;20958;-28
2022/10/06 00:31:59;;;;;;;0.77;0.60;;;;;;;17.95;62.28;97553.94;10519074;28;20572;-28
2022/10/06 00:37:00;;;;;;;1.33;0.63;;;;;;;17.94;62.33;97567.44;10513070;28;20114;-29
2022/10/06 00:42:01;;;;;;;0.50;0.50;;;;;;;17.95;62.33;97573.34;10514602;28;20032;-29
2022/10/06 00:47:01;;;;;;;0.80;0.60;;;;;;;17.96;61.71;97569.97;10518585;28;20134;-29
2022/10/06 00:52:09;;;;;;;0.55;0.43;;;;;;;17.92;61.79;97568.22;10514162;28;20040;-28
2022/10/06 00:57:11;;;;;;;1.00;0.65;;;;;;;17.90;61.76;97564.81;10511361;28;20044;-29
2022/10/06 01:02:21;;;;;;;0.70;0.70;;;;;;;17.96;61.63;97575.03;10516899;28;20109;-29
2022/10/06 01:07:25;;;;;;;0.82;0.57;;;;;;;17.95;61.76;97568.25;10514566;28;20028;-28
2022/10/06 01:12:27;;;;;;;0.98;0.50;;;;;;;17.95;61.92;97563.19;10515915;28;20035;-28
2022/10/06 01:17:40;;;;;;;1.13;0.80;;;;;;;17.99;62.93;97577.63;10514782;28;20028;-29
2022/10/06 01:22:43;;;;;;;1.52;1.00;;;;;;;17.94;63.21;97577.56;10512430;28;20046;-29
2022/10/06 01:27:50;;;;;;;1.25;0.70;;;;;;;18.04;63.04;97588.69;10512474;28;20516;-28
2022/10/06 01:32:52;;;;;;;0.50;0.45;;;;;;;17.96;62.10;97596.16;10517260;28;20501;-29
2022/10/06 01:37:57;;;;;;;0.40;0.40;;;;;;;17.97;62.14;97597.88;10506685;28;20100;-28
2022/10/06 01:42:59;;;;;;;1.33;0.70;;;;;;;17.96;61.70;97607.97;10512510;28;20028;-28
2022/10/06 01:48:00;;;;;;;1.08;0.50;;;;;;;17.94;62.22;97607.97;10521686;28;20491;-30
2022/10/06 01:53:01;;;;;;;0.70;0.70;;;;;;;17.92;61.73;97604.53;10509060;28;20074;-29
2022/10/06 01:58:03;;;;;;;1.30;0.88;;;;;;;18.00;61.82;97607.22;10505770;28;20062;-29
2022/10/06 02:03:04;;;;;;;1.27;0.90;;;;;;;17.99;62.27;97600.44;10510338;28;20120;-28
2022/10/06 02:08:04;;;;;;;1.30;0.90;;;;;;;17.99;62.03;97591.13;10511332;28;20028;-29
2022/10/06 02:13:08;;;;;;;0.85;0.50;;;;;;;18.03;61.73;97599.66;10513840;28;20040;-28
2022/10/06 02:18:09;;;;;;;0.88;0.57;;;;;;;18.02;61.70;97611.47;10511932;28;20028;-29
2022/10/06 02:23:10;;;;;;;1.30;0.50;;;;;;;18.03;61.78;97612.31;10504020;28;20028;-28
2022/10/06 02:28:10;;;;;;;1.80;0.70;;;;;;;18.05;62.15;97618.25;10510994;28;20633;-28
2022/10/06 02:33:11;;;;;;;1.17;0.70;;;;;;;18.08;62.19;97631.00;10514247;28;20032;-28
2022/10/06 02:38:12;;;;;;;1.13;0.70;;;;;;;18.06;62.18;97630.09;10500798;28;20028;-28
2022/10/06 02:43:12;;;;;;;0.90;0.63;;;;;;;18.02;61.88;97635.94;10510285;28;20407;-28
2022/10/06 02:48:13;;;;;;;1.00;0.90;;;;;;;18.05;61.56;97656.25;10518053;28;20089;-29
2022/10/06 02:53:14;;;;;;;0.45;0.40;;;;;;;17.91;62.03;97629.88;10516223;28;20116;-28
2022/10/06 02:58:14;;;;;;;1.20;0.52;;;;;;;17.99;61.76;97651.94;10504896;28;20032;-28
2022/10/06 03:03:14;;;;;;;0.70;0.70;;;;;;;18.00;61.79;97660.41;10507417;28;20031;-30
2022/10/06 03:08:15;;;;;;;0.40;0.40;;;;;;;18.00;61.73;97658.72;10505654;28;20477;-29
2022/10/06 03:13:16;;;;;;;0.70;0.50;;;;;;;17.97;61.74;97662.88;10513239;28;20510;-29
2022/10/06 03:18:18;;;;;;;1.20;0.55;;;;;;;17.97;62.05;97673.00;10508205;28;20643;-28
2022/10/06 03:23:18;;;;;;;0.63;0.50;;;;;;;17.96;61.91;97676.38;10507146;28;20036;-29
2022/10/06 03:28:19;;;;;;;0.65;0.40;;;;;;;17.96;61.99;97682.31;10508397;28;20028;-29
2022/10/06 03:33:19;;;;;;;1.13;0.75;;;;;;;18.01;62.04;97685.75;10512711;28;20032;-29
2022/10/06 03:38:21;;;;;;;0.52;0.50;;;;;;;17.93;62.38;97687.31;10503577;28;20674;-28
2022/10/06 03:43:21;;;;;;;0.88;0.52;;;;;;;18.07;62.32;97707.84;10506306;28;20028;-29
2022/10/06 03:48:22;;;;;;;0.50;0.50;;;;;;;18.04;61.83;97701.03;10506581;28;20082;-28
2022/10/06 03:53:28;;;;;;;0.75;0.60;;;;;;;18.05;61.37;97707.81;10501132;28;20098;-29
2022/10/06 03:58:30;;;;;;;0.87;0.47;;;;;;;18.08;61.42;97712.09;10501127;28;20491;-28
2022/10/06 04:03:31;;;;;;;0.80;0.65;;;;;;;18.07;61.57;97723.06;10514177;28;20028;-28
2022/10/06 04:08:33;;;;;;;0.82;0.45;;;;;;;18.06;61.46;97728.91;10517337;28;20063;-28
2022/10/06 04:13:34;;;;;;;1.30;0.45;;;;;;;18.05;61.35;97737.34;10519864;28;20534;-29
2022/10/06 04:18:35;;;;;;;0.65;0.52;;;;;;;18.06;61.26;97728.91;10514686;28;20102;-28
2022/10/06 04:23:35;;;;;;;0.70;0.40;;;;;;;18.04;61.35;97736.50;10510528;28;20376;-30
2022/10/06 04:28:37;;;;;;;2.90;0.70;;;;;;;18.04;61.79;97735.66;10519999;28;20043;-28
2022/10/06 04:33:38;;;;;;;4.22;0.80;;;;;;;18.05;61.74;97750.88;10513686;28;20471;-28
2022/10/06 04:38:39;;;;;;;1.75;0.45;;;;;;;18.05;61.68;97757.63;10505192;28;20020;-28
2022/10/06 04:43:40;;;;;;;1.20;0.77;;;;;;;18.05;62.02;97755.97;10513431;28;20494;-28
2022/10/06 04:48:41;;;;;;;1.40;0.70;;;;;;;18.05;61.85;97762.69;10519717;28;20739;-29
2022/10/06 04:53:44;;;;;;;2.80;0.70;;;;;;;18.09;62.11;97764.47;10517116;28;20156;-29
2022/10/06 04:58:48;;;;;;;2.42;0.63;;;;;;;18.07;61.15;97761.06;10512846;28;20107;-29
2022/10/06 05:03:50;;;;;;;1.85;0.70;;;;;;;18.07;61.15;97766.97;10511297;28;20028;-29
2022/10/06 05:08:54;;;;;;;4.35;0.70;;;;;;;18.07;61.38;97776.28;10514534;28;20119;-29
2022/10/06 05:13:56;;;;;;;5.45;1.20;;;;;;;18.03;61.88;97782.09;10516635;28;20423;-29
2022/10/06 05:18:58;;;;;;;2.10;0.90;;;;;;;17.99;62.72;97783.72;10506514;28;20044;-29
2022/10/06 05:24:01;;;;;;;8.43;1.50;;;;;;;17.94;63.10;97789.53;10517212;28;20024;-29
2022/10/06 05:29:02;;;;;;;3.83;0.73;;;;;;;17.94;63.17;97794.59;10517120;28;20504;-30
2022/10/06 05:34:03;;;;;;;4.20;1.38;;;;;;;17.98;62.76;97786.25;10510781;28;20033;-29
2022/10/06 05:39:04;;;;;;;3.00;1.42;;;;;;;17.90;63.40;97806.34;10515273;28;20020;-29
2022/10/06 05:44:12;;;;;;;3.75;1.10;;;;;;;17.98;62.26;97811.56;10510044;28;20576;-29
2022/10/06 05:49:14;;;;;;;4.60;1.30;;;;;;;18.05;62.99;97826.91;10514023;28;20576;-30
2022/10/06 05:54:22;;;;;;;1.35;0.90;;;;;;;18.05;62.16;97833.66;10511329;28;20115;-30
2022/10/06 05:59:23;;;;;;;2.97;1.42;;;;;;;18.07;61.75;97837.94;10506543;28;20020;-30
2022/10/06 06:04:24;;;;;;;3.63;1.08;;;;;;;18.06;61.60;97841.28;10507909;28;20035;-29
2022/10/06 06:09:28;;;;;;;5.40;0.90;;;;;;;18.07;61.82;97854.84;10498268;28;20502;-29
2022/10/06 06:19:55;;;;;;;14.15;1.80;;;;;;;18.02;61.79;97858.94;10506571;28;20029;-29
2022/10/06 06:24:56;;;;;;;6.80;1.40;;;;;;;18.03;61.41;97848.84;10520943;28;20077;-29
2022/10/06 06:29:57;;;;;;;2.00;1.50;;;;;;;18.07;61.35;97862.44;10506634;28;20462;-29
2022/10/06 06:34:58;;;;;;;1.77;0.95;;;;;;;18.09;61.44;97875.97;10503714;28;20397;-30
2022/10/06 06:39:59;;;;;;;1.98;0.85;;;;;;;18.05;61.24;97874.19;10510348;28;20024;-29
2022/10/06 06:45:00;;;;;;;3.05;1.30;;;;;;;18.08;62.13;97884.41;10508537;28;20523;-29
2022/10/06 06:50:09;;;;;;;4.97;1.50;;;;;;;18.07;63.19;97887.78;10508754;28;20060;-29
2022/10/06 06:55:10;;;;;;;3.90;1.20;;;;;;;18.07;63.07;97885.25;10510908;28;20059;-31
2022/10/06 07:00:12;;;;;;;1.60;1.10;;;;;;;18.05;62.15;97890.28;10511555;28;20032;-29
2022/10/06 07:05:13;;;;;;;1.17;0.70;;;;;;;18.08;61.54;97894.56;10507290;28;20303;-29
2022/10/06 07:10:13;;;;;;;3.40;0.88;;;;;;;18.05;61.46;97897.88;10512328;28;20024;-30
2022/10/06 07:25:53;;;;;;;4.80;1.00;;;;;;;18.06;61.99;97931.66;10508608;28;20503;-29
2022/10/06 07:30:58;;;;;;;1.13;0.80;;;;;;;18.06;61.90;97941.78;10507435;28;20166;-29
2022/10/06 07:35:58;;;;;;;2.17;0.90;;;;;;;18.07;61.54;97946.06;10503272;28;20105;-30
2022/10/06 07:41:00;;;;;;;1.48;1.00;;;;;;;18.04;61.83;97951.91;10517208;28;20097;-29
2022/10/06 07:46:08;;;;;;;1.48;0.80;;;;;;;18.04;61.79;97953.59;10514862;28;20400;-29
2022/10/06 07:51:15;;;;;;;2.95;1.52;;;;;;;18.07;63.46;97964.66;10522039;28;20020;-30
2022/10/06 07:56:19;;;;;;;6.20;1.67;;;;;;;18.08;64.07;97963.81;10513765;28;20047;-30
2022/10/06 08:01:24;;;;;;;2.70;1.73;;;;;;;18.07;63.87;97968.88;10518646;28;20157;-29
2022/10/06 08:06:24;;;;;;;2.55;1.20;;;;;;;18.02;63.46;97970.44;10513899;28;20757;-29
2022/10/06 08:11:25;;;;;;;2.05;0.82;;;;;;;18.04;61.62;97968.78;10513653;28;20036;-29
2022/10/06 08:16:29;;;;;;;3.60;1.10;;;;;;;18.07;61.82;97968.88;10517080;28;20033;-29
2022/10/06 08:21:33;;;;;;;1.23;1.08;;;;;;;18.06;61.29;97978.13;10516650;28;20031;-30
2022/10/06 08:26:33;;;;;;;1.92;1.00;;;;;;;18.05;61.35;97980.63;10515879;28;20043;-29
2022/10/06 08:31:33;;;;;;;3.03;1.17;;;;;;;18.06;61.29;97977.28;10513795;28;20497;-30
2022/10/06 08:36:34;;;;;;;1.70;1.00;;;;;;;18.06;61.30;97985.75;10513764;28;20504;-29
2022/10/06 08:41:43;;;;;;;2.13;1.20;;;;;;;18.06;60.75;97977.28;10520548;28;20377;-29
2022/10/06 08:47:21;;;;;;;6.53;1.10;;;;;;;18.07;60.94;97979.00;10518504;28;20023;-29
2022/10/06 08:52:38;;;;;;;5.72;1.30;;;;;;;18.07;60.86;97981.53;10510749;28;20040;-29
2022/10/06 08:57:59;;;;;;;13.25;2.75;;;;;;;18.12;64.61;97977.41;10510051;28;20052;-30
2022/10/06 09:03:01;;;;;;;4.88;2.10;;;;;;;18.13;65.10;97979.13;10519527;28;20060;-29
2022/10/06 09:08:23;;;;;;;5.57;1.77;;;;;;;18.13;64.64;97980.00;10519057;28;20036;-29
2022/10/06 09:13:34;;;;;;;3.55;1.75;;;;;;;18.09;63.53;97982.44;10510434;28;20037;-30
2022/10/06 09:18:44;;;;;;;4.72;1.10;;;;;;;18.08;61.45;97985.78;10513965;28;20040;-31
2022/10/06 09:23:52;;;;;;;2.65;1.63;;;;;;;18.07;61.13;97989.97;10515245;28;20028;-29
2022/10/06 09:28:53;;;;;;;2.85;1.40;;;;;;;18.07;61.91;97991.69;10508973;28;20024;-29
2022/10/06 09:34:03;;;;;;;1.52;1.08;;;;;;;18.08;61.48;98001.00;10515302;28;20430;-30
2022/10/06 09:39:05;;;;;;;3.25;1.08;;;;;;;18.07;61.25;97999.28;10521656;28;20526;-30
2022/10/06 09:44:23;;;;;;;1.40;1.00;;;;;;;18.06;61.15;97993.34;10521059;28;20514;-29
2022/10/06 09:49:25;;;;;;;3.88;1.20;;;;;;;18.06;61.29;98005.16;10506339;28;20035;-29
2022/10/06 09:54:27;;;;;;;3.25;1.10;;;;;;;18.06;61.23;98003.47;10514623;28;20036;-29
2022/10/06 09:59:34;;;;;;;13.57;2.38;;;;;;;18.05;61.35;98005.97;10512355;28;20027;-30
2022/10/06 10:04:39;;;;;;;7.88;2.28;;;;;;;18.13;63.86;98009.53;10510667;28;20135;-30
2022/10/06 10:09:40;;;;;;;5.10;2.15;;;;;;;18.14;64.22;98008.72;10513957;28;20514;-30
2022/10/06 10:14:41;;;;;;;7.18;2.15;;;;;;;18.13;63.36;98001.94;10513530;28;20127;-29
2022/10/06 10:19:43;;;;;;;6.50;1.67;;;;;;;18.01;62.89;98005.03;10506822;28;20502;-30
2022/10/06 10:25:03;;;;;;;12.50;1.95;;;;;;;18.10;61.62;98004.41;10515692;28;20154;-30
2022/10/06 10:30:08;;;;;;;3.88;1.58;;;;;;;18.09;61.34;98001.00;10509091;28;20412;-30
2022/10/06 10:35:36;;;;;;;1.75;1.05;;;;;;;18.07;61.48;97989.97;10510155;28;20459;-29
2022/10/06 10:40:44;;;;;;;1.85;1.00;;;;;;;18.08;61.24;97990.84;10509721;28;20028;-29
2022/10/06 10:45:49;;;;;;;3.63;1.27;;;;;;;18.07;61.18;97996.75;10513542;28;20568;-30
2022/10/06 10:50:53;;;;;;;3.03;1.73;;;;;;;18.07;61.18;97991.69;10500671;28;20539;-29
2022/10/06 10:55:53;;;;;;;3.17;1.20;;;;;;;18.07;61.51;97986.63;10509625;28;20511;-29
2022/10/06 11:01:01;;;;;;;4.80;2.55;;;;;;;18.07;61.31;97981.53;10503906;28;20036;-29
2022/10/06 11:06:25;;;;;;;7.97;2.33;;;;;;;18.04;63.21;97964.59;10516194;28;20028;-29
2022/10/06 11:11:44;;;;;;;10.68;2.22;;;;;;;18.15;64.17;97977.50;10507575;28;20027;-29
2022/10/06 11:17:00;;;;;;;9.77;1.88;;;;;;;18.18;63.94;97985.16;10526426;28;20029;-30
2022/10/06 11:22:11;;;;;;;6.78;1.80;;;;;;;18.14;62.84;97976.63;10503999;28;20029;-29
2022/10/06 11:27:17;;;;;;;2.25;1.15;;;;;;;18.12;61.78;97977.41;10507160;28;20050;-30
2022/10/06 11:32:36;;;;;;;3.70;0.80;;;;;;;18.09;61.07;97963.00;10514089;28;20033;-29
2022/10/06 11:37:47;;;;;;;3.92;1.13;;;;;;;18.09;61.09;97960.44;10514433;28;20036;-30
2022/10/06 11:43:03;;;;;;;5.15;1.17;;;;;;;18.08;61.21;97961.28;10498088;28;20036;-31
2022/10/06 11:48:25;;;;;;;3.20;1.13;;;;;;;18.08;61.03;97948.59;10502736;28;20052;-29
2022/10/06 11:53:38;;;;;;;8.13;1.40;;;;;;;18.08;61.07;97951.13;10514312;28;20064;-29
2022/10/06 11:58:50;;;;;;;3.00;1.50;;;;;;;18.10;61.13;97948.66;10512786;28;20535;-29
2022/10/06 12:04:10;;;;;;;3.70;1.17;;;;;;;18.09;61.16;97941.88;10508646;28;20503;-29
2022/10/06 12:09:23;;;;;;;3.58;0.95;;;;;;;18.07;61.04;97935.94;10503684;28;20050;-29
2022/10/06 12:14:49;;;;;;;12.00;3.35;;;;;;;18.14;64.08;97935.19;10511787;28;20036;-30
2022/10/06 12:20:17;;;;;;;13.02;3.10;;;;;;;18.19;64.48;97939.56;10508352;28;20039;-29
2022/10/06 12:25:47;;;;;;;17.50;2.70;;;;;;;18.04;64.10;97911.38;10509087;28;20039;-29
2022/10/06 12:31:09;;;;;;;15.93;2.92;;;;;;;18.16;63.60;97924.28;10507565;28;20109;-29
2022/10/06 12:36:30;;;;;;;14.80;2.78;;;;;;;18.13;62.22;97925.88;10515141;28;20059;-29
2022/10/06 12:42:16;;;;;;;6.80;2.35;;;;;;;18.14;61.70;97920.00;10511353;28;20032;-29
2022/10/06 12:47:36;;;;;;;5.47;1.83;;;;;;;18.08;62.61;97919.91;10465449;28;20039;-30
2022/10/06 12:52:50;;;;;;;9.50;2.42;;;;;;;18.09;61.95;97921.59;10523419;28;20487;-29
2022/10/06 12:57:52;;;;;;;6.70;2.78;;;;;;;18.09;61.25;97912.28;10517157;28;20032;-29
2022/10/06 13:02:56;;;;;;;4.18;1.63;;;;;;;18.10;61.09;97918.25;10514138;28;20575;-30
2022/10/06 13:08:00;;;;;;;4.97;2.00;;;;;;;18.05;61.59;97897.00;10511936;28;20047;-30
2022/10/06 13:13:01;;;;;;;5.55;1.85;;;;;;;18.11;61.72;97904.75;10517138;28;20042;-29
2022/10/06 13:18:11;;;;;;;4.43;1.90;;;;;;;18.11;61.29;97904.75;10515277;28;20408;-29
2022/10/06 13:23:30;;;;;;;7.13;2.15;;;;;;;18.17;63.91;97899.81;10517823;28;20434;-29
2022/10/06 13:28:42;;;;;;;7.90;2.40;;;;;;;18.19;64.08;97893.06;10513368;28;20060;-29
2022/10/06 13:33:45;;;;;;;4.35;1.70;;;;;;;18.20;63.88;97899.84;10513172;28;20047;-30
2022/10/06 13:38:45;;;;;;;6.22;1.85;;;;;;;18.17;63.64;97902.34;10512449;28;20090;-29
2022/10/06 13:43:54;;;;;;;3.33;1.70;;;;;;;18.14;61.79;97889.59;10513862;28;20085;-30
2022/10/06 13:48:59;;;;;;;9.10;2.20;;;;;;;18.12;62.56;97902.25;10513547;28;20033;-29
2022/10/06 13:54:19;;;;;;;3.40;1.83;;;;;;;18.12;62.06;97899.72;10509595;28;20040;-29
2022/10/06 13:59:31;;;;;;;1.55;1.20;;;;;;;18.12;61.73;97898.84;10514223;28;20028;-30
2022/10/06 14:04:31;;;;;;;5.75;1.60;;;;;;;18.11;61.40;97894.59;10512527;28;20032;-29
2022/10/06 14:09:32;;;;;;;4.10;1.67;;;;;;;18.11;61.34;97894.59;10511881;28;20404;-29
2022/10/06 14:14:33;;;;;;;4.32;2.08;;;;;;;18.10;61.29;97893.75;10514989;28;20025;-30
2022/10/06 14:19:36;;;;;;;1.88;1.30;;;;;;;18.11;61.27;97897.13;10510230;28;20036;-29
2022/10/06 14:24:36;;;;;;;2.80;1.40;;;;;;;18.10;61.25;97892.91;10515848;28;20056;-29
2022/10/06 14:29:40;;;;;;;4.57;1.73;;;;;;;18.16;63.83;97888.78;10512018;28;20111;-30
2022/10/06 14:34:41;;;;;;;4.22;1.77;;;;;;;18.20;63.82;97882.09;10514598;28;20122;-29
2022/10/06 14:39:43;;;;;;;4.07;1.98;;;;;;;18.20;63.58;97885.50;10505560;28;20056;-31
2022/10/06 14:44:43;;;;;;;3.40;1.30;;;;;;;18.17;63.07;97879.53;10515776;28;20039;-29
2022/10/06 14:49:44;;;;;;;3.08;1.65;;;;;;;18.14;61.57;97882.84;10502561;28;20052;-30
2022/10/06 14:54:45;;;;;;;3.97;1.30;;;;;;;18.14;61.25;97875.25;10516844;28;20028;-30
2022/10/06 14:59:45;;;;;;;3.15;1.25;;;;;;;18.12;60.84;97865.88;10509392;28;20036;-29
2022/10/06 15:04:45;;;;;;;0.87;0.70;;;;;;;18.12;61.28;97869.28;10509247;28;20036;-30
2022/10/06 15:09:46;;;;;;;1.23;1.13;;;;;;;18.11;61.06;97871.78;10509605;28;20034;-30
2022/10/06 15:14:46;;;;;;;2.30;1.40;;;;;;;18.10;61.13;97872.63;10512888;28;20037;-29
2022/10/06 15:19:47;;;;;;;2.03;1.27;;;;;;;18.09;61.24;97863.31;10511205;28;20032;-29
2022/10/06 15:24:50;;;;;;;2.63;1.10;;;;;;;18.08;61.63;97854.00;10515829;28;20133;-30
2022/10/06 15:29:50;;;;;;;2.65;1.10;;;;;;;18.09;61.15;97853.16;10509356;28;20119;-30
2022/10/06 15:34:51;;;;;;;4.47;1.77;;;;;;;18.16;63.52;97857.53;10509200;28;20024;-30
2022/10/06 15:39:51;;;;;;;4.93;1.50;;;;;;;18.19;63.45;97852.53;10516947;28;20377;-31
2022/10/06 15:44:52;;;;;;;2.70;1.30;;;;;;;18.23;62.94;97866.94;10508604;28;20081;-29
2022/10/06 15:49:52;;;;;;;1.37;0.90;;;;;;;18.18;62.54;97850.81;10501989;28;20030;-31
2022/10/06 15:54:52;;;;;;;1.57;1.07;;;;;;;18.14;61.66;97849.03;10504196;28;20279;-30
2022/10/06 15:59:53;;;;;;;3.13;1.00;;;;;;;18.16;61.19;97852.47;10509141;28;20035;-31
2022/10/06 16:09:54;;;;;;;2.67;1.23;;;;;;;18.16;61.12;97857.53;10519464;28;20025;-31
2022/10/06 16:14:54;;;;;;;6.07;1.57;;;;;;;18.11;61.50;97848.97;10519277;28;20032;-31
2022/10/06 16:19:54;;;;;;;8.63;2.40;;;;;;;18.11;61.27;97854.06;10518384;28;20028;-31
2022/10/06 16:24:55;;;;;;;13.03;5.87;;;;;;;18.14;61.25;97859.16;10521467;28;20031;-31
2022/10/06 16:29:55;;;;;;;4.13;2.03;;;;;;;18.14;60.98;97870.16;10515326;28;20035;-30
2022/10/06 16:34:55;;;;;;;5.77;2.17;;;;;;;18.13;60.97;97863.41;10518521;28;20028;-30
2022/10/06 16:39:56;;;;;;;35.47;15.40;;;;;;;18.17;64.79;97864.31;10510064;28;20285;-32
2022/10/06 16:44:56;;;;;;;35.87;14.50;;;;;;;18.21;65.75;97868.59;10521159;28;20031;-29
2022/10/06 16:49:56;;;;;;;31.53;12.80;;;;;;;18.20;64.78;97869.44;10514529;28;20092;-28
2022/10/06 16:54:57;;;;;;;25.23;9.87;;;;;;;18.18;63.94;97873.63;10515076;28;20107;-32
2022/10/06 16:59:59;;;;;;;23.45;9.32;;;;;;;18.17;63.28;97869.38;10508633;28;20495;-31
2022/10/06 17:04:59;;;;;;;9.18;3.65;;;;;;;18.13;61.75;97865.94;10537658;28;20055;-30
2022/10/06 17:10:00;;;;;;;12.60;4.37;;;;;;;18.14;61.63;97864.22;10525135;28;20134;-30
2022/10/06 17:15:00;;;;;;;10.43;5.05;;;;;;;18.09;61.44;97865.84;10515420;27;20290;-30
2022/10/06 17:20:01;;;;;;;12.30;4.33;;;;;;;18.13;61.71;97877.72;10548252;28;20511;-31
2022/10/06 17:25:01;;;;;;;10.03;4.20;;;;;;;18.14;61.42;97884.50;10517037;28;20278;-32
2022/10/06 17:30:01;;;;;;;11.23;4.43;;;;;;;18.13;61.47;97883.69;10520581;28;20036;-28
2022/10/06 17:35:02;;;;;;;11.20;4.35;;;;;;;18.13;61.35;97880.28;10518666;28;20032;-28
2022/10/06 17:40:03;;;;;;;11.05;4.00;;;;;;;18.13;61.44;97880.28;10517520;28;20050;-28
2022/10/06 17:45:04;;;;;;;14.48;5.28;;;;;;;18.15;63.17;97886.25;10503927;28;20397;-28
2022/10/06 17:50:05;;;;;;;22.83;9.13;;;;;;;18.17;64.89;97895.56;10500241;28;20036;-29
2022/10/06 17:55:06;;;;;;;30.45;11.68;;;;;;;18.22;65.78;97890.59;10511311;28;20054;-28
2022/10/06 18:00:08;;;;;;;25.40;10.27;;;;;;;18.22;65.35;97888.06;10511024;28;20099;-28
2022/10/06 18:05:12;;;;;;;11.88;5.78;;;;;;;18.17;62.61;97889.66;10509424;28;20462;-29
2022/10/06 18:15:35;;;;;;;10.32;4.85;;;;;;;18.14;61.68;97879.44;10505732;28;20408;-31
2022/10/06 18:20:39;;;;;;;9.90;4.45;;;;;;;18.15;61.48;97876.09;10508256;28;20171;-29
2022/10/06 18:25:40;;;;;;;13.15;5.50;;;;;;;18.10;61.48;97867.56;10506865;28;20446;-28
2022/10/06 18:30:40;;;;;;;9.17;4.57;;;;;;;18.07;61.57;97863.28;10509239;28;20490;-29
2022/10/06 18:35:41;;;;;;;9.98;4.03;;;;;;;18.14;61.64;97876.91;10508926;28;20066;-29
2022/10/06 18:40:41;;;;;;;14.30;5.47;;;;;;;18.13;61.58;97873.53;10505942;28;20036;-28
2022/10/06 18:51:01;;;;;;;20.52;9.02;;;;;;;18.15;64.82;97865.97;10500142;28;20042;-28
2022/10/06 18:56:01;;;;;;;19.38;9.13;;;;;;;18.21;65.45;97871.13;10502926;28;20038;-28
2022/10/06 19:01:05;;;;;;;17.03;8.63;;;;;;;18.21;64.98;97866.06;10501209;28;20111;-29
2022/10/06 19:06:06;;;;;;;14.07;6.25;;;;;;;18.15;63.29;97866.81;10505293;28;20036;-29
2022/10/06 19:16:26;;;;;;;11.75;5.68;;;;;;;18.13;62.15;97862.53;10512361;28;20036;-29
2022/10/06 19:21:26;;;;;;;10.13;5.47;;;;;;;18.12;62.32;97870.97;10505374;28;20032;-28
2022/10/06 19:26:27;;;;;;;9.27;4.50;;;;;;;18.11;61.87;97866.72;10506891;28;20285;-29
2022/10/06 19:31:27;;;;;;;11.60;5.13;;;;;;;18.11;61.70;97869.25;10505352;28;20035;-28
2022/10/06 19:36:28;;;;;;;9.05;4.57;;;;;;;18.11;61.34;97874.31;10510511;28;20032;-28
2022/10/06 19:46:48;;;;;;;17.00;8.45;;;;;;;18.22;64.66;97867.78;10506652;28;20040;-29
2022/10/06 19:51:49;;;;;;;15.65;7.65;;;;;;;18.20;64.45;97854.22;10499749;28;20047;-29
2022/10/06 19:56:49;;;;;;;13.27;5.43;;;;;;;18.25;62.79;97860.25;10506253;28;20036;-28
2022/10/06 20:01:51;;;;;;;10.23;4.33;;;;;;;18.25;62.06;97852.66;10500793;28;20040;-30
2022/10/06 20:06:51;;;;;;;10.68;5.55;;;;;;;18.25;61.47;97852.66;10505309;28;20051;-29
2022/10/06 20:11:52;;;;;;;7.65;4.20;;;;;;;18.23;61.48;97850.06;10509439;28;20043;-29
2022/10/06 20:16:54;;;;;;;9.05;4.10;;;;;;;18.25;61.67;97852.66;10516342;28;20032;-28
2022/10/06 20:21:54;;;;;;;9.25;5.63;;;;;;;18.24;61.95;97840.81;10508178;28;20047;-28
2022/10/06 20:26:54;;;;;;;8.35;4.57;;;;;;;18.24;61.68;97845.88;10501520;28;20722;-29
2022/10/06 20:31:57;;;;;;;8.10;4.50;;;;;;;18.25;61.63;97845.03;10508946;28;20097;-29
2022/10/06 20:37:00;;;;;;;10.00;4.72;;;;;;;18.22;61.39;97840.75;10514405;28;20028;-29
2022/10/06 20:42:01;;;;;;;10.40;4.35;;;;;;;18.23;61.25;97839.94;10503109;28;20103;-28
2022/10/06 20:47:02;;;;;;;13.32;5.90;;;;;;;18.25;62.36;97843.34;10510278;28;20455;-28
2022/10/06 20:52:04;;;;;;;12.60;5.13;;;;;;;18.26;63.94;97844.22;10516092;28;20017;-28
2022/10/06 20:57:05;;;;;;;10.50;5.20;;;;;;;18.27;63.99;97845.91;10510052;28;20574;-29
2022/10/06 21:02:06;;;;;;;7.97;4.53;;;;;;;18.27;62.55;97840.84;10513804;28;20476;-28
2022/10/06 21:07:06;;;;;;;8.30;4.37;;;;;;;18.26;62.27;97841.66;10517496;28;20063;-28
2022/10/06 21:12:07;;;;;;;9.82;4.22;;;;;;;18.27;62.24;97840.84;10512499;28;20800;-29
2022/10/06 21:17:07;;;;;;;6.47;3.97;;;;;;;18.25;61.95;97837.44;10515090;28;20039;-29
2022/10/06 21:22:08;;;;;;;8.50;4.13;;;;;;;18.25;61.52;97837.44;10513406;28;20484;-29
2022/10/06 21:27:08;;;;;;;7.87;3.67;;;;;;;18.25;61.65;97832.38;10515558;28;20040;-28
2022/10/06 21:32:09;;;;;;;6.43;3.70;;;;;;;18.24;61.50;97835.72;10519102;28;20036;-28
2022/10/06 21:37:09;;;;;;;7.82;4.70;;;;;;;18.21;61.69;97823.84;10517160;28;20131;-28
2022/10/06 21:42:09;;;;;;;4.93;3.37;;;;;;;18.24;61.61;97826.41;10508697;28;20403;-30
2022/10/06 21:47:10;;;;;;;8.53;4.40;;;;;;;18.23;62.33;97827.25;10513179;28;20518;-31
2022/10/06 21:52:10;;;;;;;9.57;5.33;;;;;;;18.24;63.72;97828.97;10517665;28;20470;-29
2022/10/06 21:57:14;;;;;;;6.70;4.73;;;;;;;18.17;63.52;97799.25;10514887;28;20454;-29
2022/10/06 22:02:14;;;;;;;6.47;3.63;;;;;;;18.26;61.89;97814.63;10511822;28;20020;-29
2022/10/06 22:07:14;;;;;;;6.23;3.30;;;;;;;18.20;61.72;97803.53;10510402;28;20404;-28
2022/10/06 22:12:15;;;;;;;6.47;3.80;;;;;;;18.24;61.92;97805.31;10514687;28;20461;-28
2022/10/06 22:17:15;;;;;;;6.97;4.07;;;;;;;18.24;61.60;97801.06;10517753;28;20388;-28
2022/10/06 22:22:16;;;;;;;6.03;3.60;;;;;;;18.19;61.87;97794.22;10508377;28;20270;-29
2022/10/06 22:27:16;;;;;;;6.13;3.40;;;;;;;18.24;61.59;97795.16;10511222;28;20032;-29
2022/10/06 22:32:17;;;;;;;4.70;3.20;;;;;;;18.23;61.48;97796.84;10515475;28;20869;-29
2022/10/06 22:37:17;;;;;;;6.38;3.78;;;;;;;18.24;61.56;97779.97;10513577;28;20054;-29
2022/10/06 22:42:17;;;;;;;9.50;3.80;;;;;;;18.24;61.51;97775.72;10505520;28;20032;-28
2022/10/06 22:47:18;;;;;;;8.23;4.57;;;;;;;18.23;62.15;97778.22;10510401;28;20294;-29
2022/10/06 22:52:18;;;;;;;8.97;4.60;;;;;;;18.24;63.56;97773.19;10510193;28;20355;-29
2022/10/06 22:57:19;;;;;;;6.60;4.22;;;;;;;18.26;63.45;97768.16;10513068;28;20038;-29
2022/10/06 23:02:19;;;;;;;7.77;4.50;;;;;;;18.23;62.28;97766.41;10509649;28;20074;-29
2022/10/06 23:07:20;;;;;;;5.17;3.23;;;;;;;18.24;61.66;97762.22;10508244;28;20692;-28
2022/10/06 23:12:20;;;;;;;5.37;3.43;;;;;;;18.23;61.61;97753.75;10511679;28;20495;-28
2022/10/06 23:17:20;;;;;;;4.87;2.93;;;;;;;18.23;61.88;97747.81;10513444;28;20504;-28
2022/10/06 23:22:21;;;;;;;6.97;4.20;;;;;;;18.23;61.44;97747.81;10506852;28;20484;-28
2022/10/06 23:27:21;;;;;;;5.70;3.27;;;;;;;18.22;61.55;97743.56;10508547;28;20507;-29
2022/10/06 23:32:21;;;;;;;4.80;3.70;;;;;;;18.22;61.66;97739.38;10513219;28;20476;-29
2022/10/06 23:37:22;;;;;;;5.40;3.22;;;;;;;18.20;61.64;97732.56;10513693;28;20527;-29
2022/10/06 23:42:22;;;;;;;8.10;3.88;;;;;;;18.21;61.21;97729.19;10503656;28;20024;-28
2022/10/06 23:47:23;;;;;;;6.03;3.07;;;;;;;18.21;61.37;97735.13;10510218;28;20182;-28
2022/10/06 23:52:23;;;;;;;7.93;3.80;;;;;;;18.22;62.95;97731.75;10509629;28;20297;-28
2022/10/06 23:57:23;;;;;;;7.70;3.97;;;;;;;18.09;63.50;97701.13;10503845;28;20415;-29
